GCTS/TFS METAR and TAF weather

Enter ICAO airport designator
Station Type Date Time Source
GCTS METAR 2022/01/26 19:30 UTC NOAA

GCTS 261930Z 06007KT 9999 FEW045 17/11 Q1019 NOSIG


Station Type Date Time Source
GCTS Decoded METAR 2022/01/26 19:30 UTC NOAA

Tenerife Sur, Spain (GCTS) 28-03N 016-34W 77M
Jan 26, 2022 - 02:30 PM EST / 2022.01.26 1930 UTC
Wind: from the ENE (060 degrees) at 8 MPH (7 KT):0
Visibility: greater than 7 mile(s):0
Sky conditions: mostly clear
Temperature: 62 F (17 C)
Dew Point: 51 F (11 C)
Relative Humidity: 67%
Pressure (altimeter): 30.09 in. Hg (1019 hPa)
ob: GCTS 261930Z 06007KT 9999 FEW045 17/11 Q1019 NOSIG
cycle: 19

Station Type Date Time Source
GCTS TAF 2022/01/26 15:27 UTC NOAA

TAF GCTS 261400Z 2615/2715 36005KT 9999 SCT030 TX20/2714Z TN13/2706Z
BECMG 2621/2623 06010KT
TEMPO 2615/2621 4500 RA

Example: see airport list